Time;durP1;ratioP1;P1;durP2;ratioP2;P2;SDS_P1;SDS_P2;PMS_P1;PMS_P2;Temp;Humidity;BMP_temperature;BMP_pressure;BME280_temperature;BME280_humidity;BME280_pressure;Samples;Min_cycle;Max_cycle;Signal;HPM_P1;HPM_P2
2021/12/22 00:02:20;;;;;;;41.50;17.33;;;-3.20;99.90;;;;;;5098263;28;20154;-76
2021/12/22 00:04:48;;;;;;;45.55;17.35;;;-3.20;99.90;;;;;;5099659;28;20454;-75
2021/12/22 00:07:15;;;;;;;45.30;16.17;;;-3.20;99.90;;;;;;5135706;27;20035;-75
2021/12/22 00:09:42;;;;;;;46.65;16.75;;;-3.20;99.90;;;;;;5116350;28;20127;-74
2021/12/22 00:12:09;;;;;;;45.20;16.65;;;-3.20;99.90;;;;;;5116551;28;20127;-75
2021/12/22 00:14:35;;;;;;;48.05;16.80;;;-3.20;99.90;;;;;;5097947;28;20051;-75
2021/12/22 00:17:01;;;;;;;50.78;17.90;;;-3.20;99.90;;;;;;5098195;28;20044;-76
2021/12/22 00:19:26;;;;;;;46.65;16.75;;;-3.20;99.90;;;;;;5116991;28;20122;-75
2021/12/22 00:21:52;;;;;;;50.08;17.70;;;-3.30;99.90;;;;;;5116130;28;20047;-76
2021/12/22 00:24:18;;;;;;;46.10;16.52;;;-3.30;99.90;;;;;;5116146;28;20481;-74
2021/12/22 00:26:44;;;;;;;39.13;16.52;;;-3.30;99.90;;;;;;5116094;28;20101;-75
2021/12/22 00:29:12;;;;;;;47.08;16.90;;;-3.30;99.90;;;;;;5116513;28;20039;-75
2021/12/22 00:31:45;;;;;;;41.38;16.15;;;-3.30;99.90;;;;;;5081060;28;20047;-76
2021/12/22 00:34:16;;;;;;;46.08;17.48;;;-3.30;99.90;;;;;;5098641;28;20484;-75
2021/12/22 00:36:45;;;;;;;57.22;17.23;;;-3.30;99.90;;;;;;5082751;28;20055;-75
2021/12/22 00:39:11;;;;;;;41.70;16.02;;;-3.30;99.90;;;;;;5097754;28;20047;-75
2021/12/22 00:41:37;;;;;;;47.55;16.98;;;-3.30;99.90;;;;;;5115755;28;20420;-74
2021/12/22 00:44:03;;;;;;;48.60;15.93;;;-3.40;99.90;;;;;;5116346;28;20155;-75
2021/12/22 00:46:29;;;;;;;49.95;16.70;;;-3.50;99.90;;;;;;5097439;28;20133;-75
2021/12/22 00:48:55;;;;;;;47.10;16.83;;;-3.50;99.90;;;;;;5116195;28;20514;-77
2021/12/22 00:51:21;;;;;;;41.90;15.48;;;-3.60;99.90;;;;;;5111318;28;20483;-75
2021/12/22 00:53:47;;;;;;;48.78;17.70;;;-3.60;99.90;;;;;;5094173;28;20055;-75
2021/12/22 00:56:13;;;;;;;40.60;16.83;;;-3.60;99.90;;;;;;5093831;28;20155;-75
2021/12/22 00:58:39;;;;;;;45.13;16.08;;;-3.60;99.90;;;;;;5094033;28;20048;-74
2021/12/22 01:01:04;;;;;;;48.63;14.88;;;-3.60;99.90;;;;;;5093831;28;20384;-75
2021/12/22 01:03:33;;;;;;;42.25;15.63;;;-3.50;99.90;;;;;;5094911;28;20135;-74
2021/12/22 01:05:59;;;;;;;39.47;15.00;;;-3.60;99.90;;;;;;5095253;28;20186;-75
2021/12/22 01:08:25;;;;;;;41.25;15.43;;;-3.60;99.90;;;;;;5093848;28;20044;-74
2021/12/22 01:10:50;;;;;;;39.60;14.18;;;-3.60;99.90;;;;;;5094658;28;20059;-75
2021/12/22 01:13:16;;;;;;;41.53;15.32;;;-3.60;99.90;;;;;;5094660;28;20040;-74
2021/12/22 01:15:42;;;;;;;49.08;17.00;;;-3.60;99.90;;;;;;5093283;28;20051;-75
2021/12/22 01:18:15;;;;;;;45.03;15.90;;;-3.70;99.90;;;;;;5093442;28;20044;-75
2021/12/22 01:23:33;;;;;;;49.73;15.77;;;-3.70;99.90;;;;;;5098371;28;20054;-75
2021/12/22 01:26:03;;;;;;;41.42;15.25;;;-3.80;99.90;;;;;;5094097;28;20658;-76
2021/12/22 01:28:28;;;;;;;37.58;15.18;;;-3.80;99.90;;;;;;5095663;28;20044;-75
2021/12/22 01:31:00;;;;;;;44.53;16.55;;;-3.80;99.90;;;;;;5094654;28;20054;-75
2021/12/22 01:33:26;;;;;;;39.42;14.55;;;-3.90;99.90;;;;;;5094839;28;20044;-74
2021/12/22 01:35:52;;;;;;;43.42;14.82;;;-3.90;99.90;;;;;;5094825;28;20052;-75
2021/12/22 01:38:24;;;;;;;43.28;14.90;;;-3.90;99.90;;;;;;5105332;28;20113;-75
2021/12/22 01:40:51;;;;;;;36.15;13.65;;;-3.90;99.90;;;;;;5103088;28;20185;-74
2021/12/22 01:43:17;;;;;;;41.63;15.23;;;-3.90;99.90;;;;;;5103855;28;20052;-75
2021/12/22 01:51:08;;;;;;;39.75;14.80;;;-3.90;99.90;;;;;;5098506;28;20067;-74
2021/12/22 01:53:45;;;;;;;41.10;15.35;;;-3.90;99.90;;;;;;5096677;28;20052;-74
2021/12/22 01:56:21;;;;;;;43.53;14.70;;;-3.90;99.90;;;;;;5095669;28;20121;-73
2021/12/22 01:58:49;;;;;;;38.65;14.75;;;-3.90;99.90;;;;;;5095810;28;20044;-74
2021/12/22 02:01:15;;;;;;;40.70;15.35;;;-3.90;99.90;;;;;;5095433;28;20048;-75
2021/12/22 02:03:43;;;;;;;38.92;15.18;;;-3.90;99.90;;;;;;5093951;28;20032;-74
2021/12/22 02:06:10;;;;;;;38.72;14.63;;;-3.90;99.90;;;;;;5094213;28;20097;-74
2021/12/22 02:08:37;;;;;;;39.47;14.13;;;-3.90;99.90;;;;;;5093047;28;20445;-74
2021/12/22 02:11:04;;;;;;;39.22;14.90;;;-3.90;99.90;;;;;;5092732;28;20105;-74
2021/12/22 02:13:34;;;;;;;39.25;14.02;;;-3.90;99.90;;;;;;5093844;28;20044;-74
2021/12/22 02:16:09;;;;;;;39.55;15.20;;;-3.90;99.90;;;;;;5094195;28;20444;-74
2021/12/22 02:18:38;;;;;;;43.58;14.77;;;-4.00;99.90;;;;;;5094259;28;20109;-74
2021/12/22 02:21:04;;;;;;;42.50;15.07;;;-4.00;99.90;;;;;;5093722;28;20044;-75
2021/12/22 02:23:31;;;;;;;39.50;13.95;;;-4.00;99.90;;;;;;5092424;28;20051;-75
2021/12/22 02:26:04;;;;;;;35.60;12.65;;;-4.00;99.90;;;;;;5093264;28;20129;-75
2021/12/22 02:28:34;;;;;;;41.22;13.77;;;-3.90;99.90;;;;;;5075086;28;20172;-74
2021/12/22 02:31:00;;;;;;;34.97;13.32;;;-4.00;99.90;;;;;;5092369;28;20102;-74
2021/12/22 02:33:36;;;;;;;38.55;14.68;;;-4.00;99.90;;;;;;5093129;28;20071;-74
2021/12/22 02:38:36;;;;;;;39.85;14.05;;;-4.00;99.90;;;;;;5093416;28;20052;-74
2021/12/22 02:41:02;;;;;;;36.67;13.40;;;-4.10;99.90;;;;;;5091897;28;20161;-73
2021/12/22 02:43:32;;;;;;;39.93;13.57;;;-4.00;99.90;;;;;;5091774;28;20047;-74
2021/12/22 02:45:58;;;;;;;39.20;13.85;;;-4.00;99.90;;;;;;5092393;28;20154;-73
2021/12/22 02:48:29;;;;;;;36.78;12.60;;;-4.00;99.90;;;;;;5092618;28;20039;-74
2021/12/22 02:50:57;;;;;;;39.88;14.00;;;-4.10;99.90;;;;;;5091432;28;20060;-74
2021/12/22 02:53:27;;;;;;;39.40;14.27;;;-4.10;99.90;;;;;;5093071;28;20083;-74
2021/12/22 02:58:56;;;;;;;36.42;13.88;;;-4.10;99.90;;;;;;5078419;28;20048;-74
2021/12/22 03:06:38;;;;;;;37.33;12.88;;;-4.20;99.90;;;;;;5092026;28;20044;-74
2021/12/22 03:09:31;;;;;;;34.83;11.65;;;-4.10;99.90;;;;;;5093247;28;20446;-74
2021/12/22 03:12:00;;;;;;;33.35;13.27;;;-4.10;99.90;;;;;;5093087;28;20043;-74
2021/12/22 03:14:27;;;;;;;37.83;13.65;;;-4.20;99.90;;;;;;5092486;28;20071;-73
2021/12/22 03:16:53;;;;;;;37.75;12.73;;;-4.20;99.90;;;;;;5092399;28;20050;-76
2021/12/22 03:19:22;;;;;;;37.58;13.10;;;-4.20;99.90;;;;;;5092742;28;20047;-74
2021/12/22 03:21:51;;;;;;;37.97;14.25;;;-4.20;99.90;;;;;;5091563;28;20547;-74
2021/12/22 03:24:19;;;;;;;38.05;13.32;;;-4.30;99.90;;;;;;5092014;28;20429;-75
2021/12/22 03:26:45;;;;;;;36.38;12.60;;;-4.30;99.90;;;;;;5092136;28;20040;-74
2021/12/22 03:29:14;;;;;;;39.67;13.73;;;-4.30;99.90;;;;;;5091870;28;20043;-77
2021/12/22 03:31:40;;;;;;;40.55;13.85;;;-4.40;99.90;;;;;;5092053;28;20059;-73
2021/12/22 03:34:07;;;;;;;39.53;13.77;;;-4.40;99.90;;;;;;5092041;28;20476;-73
2021/12/22 03:36:33;;;;;;;43.58;14.25;;;-4.30;99.90;;;;;;5074458;28;20048;-73
2021/12/22 03:38:59;;;;;;;40.65;14.35;;;-4.40;99.90;;;;;;5091603;28;20054;-74
2021/12/22 03:41:25;;;;;;;38.28;14.27;;;-4.40;99.90;;;;;;5091808;28;20118;-74
2021/12/22 03:43:51;;;;;;;42.42;14.48;;;-4.40;99.90;;;;;;5092043;28;20050;-74
2021/12/22 03:46:17;;;;;;;38.40;14.05;;;-4.50;99.90;;;;;;5073435;28;20079;-74
2021/12/22 03:48:42;;;;;;;39.45;12.90;;;-4.50;99.90;;;;;;5092157;28;20055;-74
2021/12/22 03:51:09;;;;;;;39.05;13.52;;;-4.50;99.90;;;;;;5104668;28;20078;-74
2021/12/22 03:53:35;;;;;;;34.90;13.00;;;-4.50;99.90;;;;;;5094388;28;20095;-73
2021/12/22 03:56:01;;;;;;;36.80;12.32;;;-4.50;99.90;;;;;;5112691;28;20055;-74
2021/12/22 03:58:27;;;;;;;39.15;13.90;;;-4.50;99.90;;;;;;5128599;28;20055;-75
2021/12/22 04:00:55;;;;;;;37.22;13.20;;;-4.50;99.90;;;;;;5112573;28;20051;-74
2021/12/22 04:03:24;;;;;;;37.30;13.05;;;-4.50;99.90;;;;;;5094222;28;20060;-74
2021/12/22 04:05:50;;;;;;;37.05;13.23;;;-4.50;99.90;;;;;;5078511;28;20506;-74
2021/12/22 04:08:18;;;;;;;41.80;13.55;;;-4.50;99.90;;;;;;5112065;28;20059;-76
2021/12/22 04:10:48;;;;;;;41.53;13.75;;;-4.50;99.90;;;;;;5094018;28;20047;-74
2021/12/22 04:13:15;;;;;;;35.03;13.43;;;-4.50;99.90;;;;;;5094348;28;20055;-74
2021/12/22 04:15:42;;;;;;;34.00;11.90;;;-4.50;99.90;;;;;;5112016;28;20050;-75
2021/12/22 04:18:08;;;;;;;34.00;13.20;;;-4.50;99.90;;;;;;5114598;28;20509;-75
2021/12/22 04:20:34;;;;;;;39.22;13.15;;;-4.50;99.90;;;;;;5116580;28;20053;-75
2021/12/22 04:23:01;;;;;;;33.88;12.32;;;-4.50;99.90;;;;;;5115870;28;20043;-75
2021/12/22 04:25:27;;;;;;;38.17;13.52;;;-4.50;99.90;;;;;;5115642;28;20058;-74
2021/12/22 04:27:56;;;;;;;43.07;14.17;;;-4.50;99.90;;;;;;5116183;28;20048;-73
2021/12/22 04:30:24;;;;;;;35.53;14.30;;;-4.60;99.90;;;;;;5115289;28;20321;-74
2021/12/22 04:32:51;;;;;;;40.63;13.80;;;-4.50;99.90;;;;;;5116464;28;20055;-74
2021/12/22 04:35:17;;;;;;;37.83;12.60;;;-4.60;99.90;;;;;;5097914;28;20493;-74
2021/12/22 04:37:43;;;;;;;39.92;12.30;;;-4.60;99.90;;;;;;5115451;28;20036;-74
2021/12/22 04:40:10;;;;;;;42.85;14.23;;;-4.60;99.90;;;;;;5115846;28;20043;-75
2021/12/22 04:42:36;;;;;;;40.30;14.73;;;-4.60;99.90;;;;;;5115610;28;20052;-75
2021/12/22 04:45:05;;;;;;;37.75;13.75;;;-4.60;99.90;;;;;;5096873;28;20044;-75
2021/12/22 04:47:32;;;;;;;38.72;13.45;;;-4.60;99.90;;;;;;5080906;28;20093;-74
2021/12/22 04:49:59;;;;;;;;;;;-4.60;99.90;;;;;;5115272;28;20426;-74
2021/12/22 04:52:31;;;;;;;34.40;11.93;;;-4.60;99.90;;;;;;5115604;28;19919;-74
2021/12/22 04:55:04;;;;;;;36.08;12.07;;;-4.70;99.90;;;;;;5131242;27;20063;-74
2021/12/22 04:57:33;;;;;;;39.30;12.60;;;-4.60;99.90;;;;;;5096857;28;20057;-74
2021/12/22 05:00:01;;;;;;;40.25;13.32;;;-4.70;99.90;;;;;;5113926;28;20377;-74
2021/12/22 05:02:27;;;;;;;;;;;-4.70;99.90;;;;;;5115326;28;20043;-75
2021/12/22 05:04:52;;;;;;;41.20;13.77;;;-4.70;99.90;;;;;;5114962;28;20252;-75
2021/12/22 05:07:18;;;;;;;37.92;12.88;;;-4.70;99.90;;;;;;5080509;28;20044;-75
2021/12/22 05:09:44;;;;;;;36.13;12.10;;;-4.70;99.90;;;;;;5080283;28;20061;-75
2021/12/22 05:12:10;;;;;;;37.00;12.68;;;-4.60;99.90;;;;;;5114987;28;20059;-75
2021/12/22 05:14:35;;;;;;;34.33;12.50;;;-4.70;99.90;;;;;;5096547;28;20043;-74
2021/12/22 05:17:05;;;;;;;37.53;12.27;;;-4.60;99.90;;;;;;5097400;28;20060;-75
2021/12/22 05:19:30;;;;;;;39.63;13.20;;;-4.60;99.90;;;;;;5115273;28;20087;-74
2021/12/22 05:21:56;;;;;;;39.03;13.55;;;-4.60;99.90;;;;;;5096660;28;20051;-75
2021/12/22 05:24:23;;;;;;;39.55;13.35;;;-4.70;99.90;;;;;;5114980;28;20089;-74
2021/12/22 05:26:49;;;;;;;36.88;13.77;;;-4.70;99.90;;;;;;5114499;28;20047;-74
2021/12/22 05:29:16;;;;;;;37.30;12.63;;;-4.70;99.90;;;;;;5130046;27;20047;-74
2021/12/22 05:31:42;;;;;;;44.72;14.48;;;-4.70;99.90;;;;;;5096463;28;20098;-74
2021/12/22 05:34:08;;;;;;;39.30;13.63;;;-4.70;99.90;;;;;;5096630;28;20418;-74
2021/12/22 05:36:34;;;;;;;39.53;13.63;;;-4.60;99.90;;;;;;5130445;27;20051;-75
2021/12/22 05:39:00;;;;;;;47.65;14.32;;;-4.70;99.90;;;;;;5114611;28;20044;-75
2021/12/22 05:41:25;;;;;;;41.65;13.90;;;-4.60;99.90;;;;;;5114897;28;20473;-76
2021/12/22 05:43:51;;;;;;;38.08;13.55;;;-4.60;99.90;;;;;;5114114;28;20383;-75
2021/12/22 05:46:17;;;;;;;45.15;14.27;;;-4.60;99.90;;;;;;5096069;28;20055;-75
2021/12/22 05:48:48;;;;;;;47.08;14.77;;;-4.60;99.90;;;;;;5114609;28;20047;-75
2021/12/22 05:51:14;;;;;;;44.63;14.63;;;-4.60;99.90;;;;;;5130261;27;20056;-74
2021/12/22 05:53:40;;;;;;;42.10;14.02;;;-4.70;99.90;;;;;;5114211;28;20104;-74
2021/12/22 05:56:06;;;;;;;41.22;13.93;;;-4.70;99.90;;;;;;5114112;28;20043;-74
2021/12/22 05:58:32;;;;;;;36.53;13.95;;;-4.70;99.90;;;;;;5113385;27;20095;-74
2021/12/22 06:00:57;;;;;;;39.00;14.75;;;-4.70;99.90;;;;;;5130555;27;20530;-74
2021/12/22 06:03:23;;;;;;;44.90;14.88;;;-4.70;99.90;;;;;;5114076;28;20074;-74
2021/12/22 06:05:49;;;;;;;34.95;12.27;;;-4.70;99.90;;;;;;5114275;28;20123;-74
2021/12/22 06:08:15;;;;;;;40.97;14.60;;;-4.70;99.90;;;;;;5095803;28;20150;-74
2021/12/22 06:10:40;;;;;;;43.58;13.57;;;-4.70;99.90;;;;;;5095477;28;20543;-74
2021/12/22 06:13:08;;;;;;;45.58;14.80;;;-4.70;99.90;;;;;;5113767;28;20095;-74
2021/12/22 06:15:36;;;;;;;41.30;13.88;;;-4.70;99.90;;;;;;5114049;28;20048;-74
2021/12/22 06:18:03;;;;;;;41.45;14.30;;;-4.60;99.90;;;;;;5095846;28;20039;-74
2021/12/22 06:20:30;;;;;;;39.40;13.32;;;-4.70;99.90;;;;;;5096084;28;20075;-74
2021/12/22 06:22:56;;;;;;;;;;;-4.70;99.90;;;;;;5116179;28;20056;-73
2021/12/22 06:25:23;;;;;;;41.35;12.65;;;-4.70;99.90;;;;;;5114358;28;20018;-74
2021/12/22 06:27:49;;;;;;;44.85;13.88;;;-4.70;99.90;;;;;;5078579;28;20050;-74
2021/12/22 06:30:15;;;;;;;41.13;13.90;;;-4.60;99.90;;;;;;5113484;28;20047;-74
2021/12/22 06:32:41;;;;;;;36.95;13.52;;;-4.70;99.90;;;;;;5130337;27;20039;-74
2021/12/22 06:35:08;;;;;;;37.03;13.20;;;-4.60;99.90;;;;;;5115201;28;20096;-76
2021/12/22 06:37:35;;;;;;;36.70;13.73;;;-4.70;99.90;;;;;;5113643;28;20040;-76
2021/12/22 06:40:01;;;;;;;43.70;14.50;;;-4.60;99.90;;;;;;5112936;28;20406;-74
2021/12/22 06:42:27;;;;;;;42.45;13.80;;;-4.70;99.90;;;;;;5095430;28;20070;-74
2021/12/22 06:44:53;;;;;;;36.03;13.07;;;-4.60;99.90;;;;;;5111786;28;20036;-74
2021/12/22 06:47:19;;;;;;;42.42;14.00;;;-4.60;99.90;;;;;;5094899;28;20475;-74
2021/12/22 06:49:44;;;;;;;42.47;13.93;;;-4.70;99.90;;;;;;5113002;28;20130;-74
2021/12/22 06:52:10;;;;;;;39.33;14.27;;;-4.70;99.90;;;;;;5078192;28;20210;-73
2021/12/22 06:54:36;;;;;;;43.03;14.75;;;-4.70;99.90;;;;;;5094304;28;20127;-76
2021/12/22 06:57:02;;;;;;;37.60;13.70;;;-4.70;99.90;;;;;;5113134;28;20066;-74
2021/12/22 06:59:28;;;;;;;38.08;12.68;;;-4.80;99.90;;;;;;5113428;28;20132;-74
2021/12/22 07:01:54;;;;;;;42.25;13.60;;;-4.80;99.90;;;;;;5094888;28;20043;-74
2021/12/22 07:04:20;;;;;;;43.25;13.52;;;-4.80;99.90;;;;;;5112769;28;20062;-74
2021/12/22 07:06:46;;;;;;;41.97;13.48;;;-4.80;99.90;;;;;;5113402;28;20063;-74
2021/12/22 07:09:12;;;;;;;41.45;14.52;;;-4.80;99.90;;;;;;5094812;28;20555;-74
2021/12/22 07:11:38;;;;;;;38.17;12.73;;;-4.80;99.90;;;;;;5078578;28;20418;-75
2021/12/22 07:14:08;;;;;;;39.57;12.90;;;-4.80;99.90;;;;;;5094604;28;20081;-74
2021/12/22 07:16:34;;;;;;;41.15;12.45;;;-4.70;99.90;;;;;;5111902;28;20050;-74
2021/12/22 07:19:01;;;;;;;41.20;14.23;;;-4.70;99.90;;;;;;5094295;28;20122;-74
2021/12/22 07:21:27;;;;;;;41.78;12.25;;;-4.60;99.90;;;;;;5061526;28;20102;-75
2021/12/22 07:23:52;;;;;;;38.78;13.50;;;-4.70;99.90;;;;;;5112735;28;20437;-75
2021/12/22 07:26:18;;;;;;;42.00;14.43;;;-4.60;99.90;;;;;;5094138;28;20039;-75
2021/12/22 07:28:48;;;;;;;48.38;13.20;;;-4.60;99.90;;;;;;5112410;28;20043;-74
2021/12/22 07:31:15;;;;;;;35.83;12.15;;;-4.60;99.90;;;;;;5094093;28;20059;-75
2021/12/22 07:34:00;;;;;;;;;;;-4.60;99.90;;;;;;5113648;28;20157;-77
2021/12/22 07:36:26;;;;;;;39.33;12.50;;;-4.60;99.90;;;;;;5112676;28;19939;-75
2021/12/22 07:39:00;;;;;;;36.08;12.70;;;-4.50;99.90;;;;;;5094255;28;20043;-75
2021/12/22 07:41:27;;;;;;;47.17;17.45;;;-4.50;99.90;;;;;;5094393;28;20052;-75
2021/12/22 07:43:53;;;;;;;49.20;18.38;;;-4.50;99.90;;;;;;5094977;28;20036;-75
2021/12/22 07:46:19;;;;;;;39.17;14.98;;;-4.50;99.90;;;;;;5094334;28;20090;-75
2021/12/22 07:48:45;;;;;;;41.88;16.27;;;-4.40;99.90;;;;;;5112490;28;20115;-75
2021/12/22 07:51:12;;;;;;;38.65;14.45;;;-4.40;99.90;;;;;;5112608;28;20074;-75
2021/12/22 07:53:37;;;;;;;40.90;14.48;;;-4.30;99.90;;;;;;5115887;28;20065;-75
2021/12/22 07:56:03;;;;;;;38.72;13.38;;;-4.30;99.90;;;;;;5116250;28;20123;-75
2021/12/22 07:58:29;;;;;;;42.85;14.23;;;-4.20;99.90;;;;;;5081279;28;20054;-75
2021/12/22 08:00:56;;;;;;;36.85;13.23;;;-4.30;99.90;;;;;;5116101;28;20077;-76
2021/12/22 08:03:23;;;;;;;39.25;12.40;;;-4.20;99.90;;;;;;5116776;28;20067;-74
2021/12/22 08:05:49;;;;;;;30.77;12.10;;;-4.20;99.90;;;;;;5132215;27;20078;-76
2021/12/22 08:08:17;;;;;;;38.55;13.73;;;-4.20;99.90;;;;;;5116362;28;20059;-75
2021/12/22 08:10:43;;;;;;;41.20;13.13;;;-4.10;99.90;;;;;;5115161;28;20133;-75
2021/12/22 08:13:09;;;;;;;59.50;21.87;;;-4.10;99.90;;;;;;5098114;28;20100;-75
2021/12/22 08:15:35;;;;;;;47.70;18.02;;;-4.10;99.90;;;;;;5116303;28;20383;-74
2021/12/22 08:18:01;;;;;;;39.53;15.95;;;-4.10;99.90;;;;;;5097329;28;20060;-75
2021/12/22 08:20:26;;;;;;;40.83;14.65;;;-4.00;99.90;;;;;;5097778;28;20130;-75
2021/12/22 08:22:53;;;;;;;46.10;17.42;;;-4.00;99.90;;;;;;5080850;28;20136;-74
2021/12/22 08:25:20;;;;;;;43.10;13.90;;;-4.00;99.90;;;;;;5097748;28;20042;-74
2021/12/22 08:27:46;;;;;;;31.08;11.07;;;-3.90;99.90;;;;;;5114979;27;20059;-77
2021/12/22 08:30:13;;;;;;;38.50;13.35;;;-3.90;99.90;;;;;;5097764;28;20097;-73
2021/12/22 08:32:39;;;;;;;40.60;13.50;;;-3.90;99.90;;;;;;5116179;28;20082;-75
2021/12/22 08:35:07;;;;;;;37.10;13.65;;;-3.80;99.90;;;;;;5081522;28;20056;-75
2021/12/22 08:40:20;;;;;;;35.55;13.90;;;-3.70;99.90;;;;;;5116284;28;20134;-74
2021/12/22 08:42:47;;;;;;;40.30;13.35;;;-3.70;99.90;;;;;;5115574;28;20065;-73
2021/12/22 08:45:14;;;;;;;40.03;14.20;;;-3.60;99.90;;;;;;5116208;28;20065;-75
2021/12/22 08:47:40;;;;;;;39.03;14.00;;;-3.60;99.90;;;;;;5116454;28;20063;-75
2021/12/22 08:50:08;;;;;;;37.38;14.23;;;-3.50;99.90;;;;;;5117082;28;20089;-73
2021/12/22 08:52:34;;;;;;;38.80;12.77;;;-3.50;99.90;;;;;;5116215;28;20060;-74
2021/12/22 08:55:00;;;;;;;33.60;12.10;;;-3.40;99.90;;;;;;5097409;28;20123;-75
2021/12/22 08:57:26;;;;;;;36.67;13.02;;;-3.40;99.90;;;;;;5115752;28;20050;-75
2021/12/22 08:59:53;;;;;;;38.22;12.98;;;-3.40;99.90;;;;;;5115549;28;20375;-74
2021/12/22 09:02:19;;;;;;;35.40;13.60;;;-3.30;99.90;;;;;;5096789;28;20417;-74
2021/12/22 09:04:45;;;;;;;41.05;13.13;;;-3.30;99.90;;;;;;5079439;28;20199;-74
2021/12/22 09:07:11;;;;;;;36.97;13.65;;;-3.30;99.90;;;;;;5115148;28;20130;-74
2021/12/22 09:09:38;;;;;;;42.17;13.52;;;-3.30;99.90;;;;;;5097705;28;20055;-74
2021/12/22 09:12:06;;;;;;;38.72;13.23;;;-3.30;99.90;;;;;;5097370;28;20143;-74
2021/12/22 09:14:32;;;;;;;35.65;11.75;;;-3.20;99.90;;;;;;5096889;28;20051;-74
2021/12/22 09:16:57;;;;;;;35.55;12.57;;;-3.10;99.90;;;;;;5096758;28;20052;-74
2021/12/22 09:19:23;;;;;;;27.52;9.82;;;-3.20;99.90;;;;;;5115185;28;20525;-75
2021/12/22 09:21:51;;;;;;;41.05;14.27;;;-3.10;99.90;;;;;;5115871;28;20153;-74
2021/12/22 09:24:17;;;;;;;39.10;13.32;;;-3.00;99.90;;;;;;5115165;28;20114;-74
2021/12/22 09:26:43;;;;;;;35.13;12.30;;;-3.00;99.90;;;;;;5097719;28;20050;-76
2021/12/22 09:29:09;;;;;;;38.58;14.00;;;-2.90;99.90;;;;;;5115586;28;20137;-76
2021/12/22 09:31:36;;;;;;;37.17;13.73;;;-3.00;99.90;;;;;;5098727;28;20039;-74
2021/12/22 09:34:03;;;;;;;31.40;11.07;;;-2.90;99.90;;;;;;5096847;28;20047;-74
2021/12/22 09:36:28;;;;;;;30.40;10.40;;;-2.90;99.90;;;;;;5115018;28;20428;-73
2021/12/22 09:38:54;;;;;;;41.50;13.30;;;-2.90;99.90;;;;;;5114952;28;20036;-75
2021/12/22 09:41:20;;;;;;;36.78;14.05;;;-2.80;99.90;;;;;;5096703;28;20055;-74
2021/12/22 09:43:47;;;;;;;36.97;11.95;;;-2.70;99.90;;;;;;5115777;28;20083;-74
2021/12/22 09:46:17;;;;;;;40.28;14.35;;;-2.70;99.90;;;;;;5116492;28;20044;-74
2021/12/22 09:53:44;;;;;;;45.20;14.38;;;-2.60;99.90;;;;;;5096207;28;20043;-74
2021/12/22 09:56:15;;;;;;;35.05;13.60;;;-2.50;99.90;;;;;;5129831;27;20062;-73
2021/12/22 09:58:43;;;;;;;38.30;13.32;;;-2.40;99.90;;;;;;5096237;28;20086;-75
2021/12/22 10:01:10;;;;;;;26.55;9.60;;;-2.40;99.90;;;;;;5129916;27;20047;-74
2021/12/22 10:03:36;;;;;;;34.60;13.68;;;-2.40;99.90;;;;;;5095865;28;20130;-74
2021/12/22 10:06:02;;;;;;;45.85;15.75;;;-2.30;99.90;;;;;;5095962;28;20093;-75
2021/12/22 10:08:29;;;;;;;35.17;12.93;;;-2.30;99.90;;;;;;5114042;28;20079;-74
2021/12/22 10:11:09;;;;;;;38.30;14.77;;;-2.30;99.90;;;;;;5114057;28;20176;-74
2021/12/22 10:13:39;;;;;;;37.53;13.35;;;-2.30;99.90;;;;;;5114354;28;20047;-74
2021/12/22 10:16:20;;;;;;;35.88;12.88;;;-2.20;99.90;;;;;;5095359;28;20391;-73
2021/12/22 10:18:47;;;;;;;38.10;13.15;;;-2.20;99.90;;;;;;5113525;28;20044;-74
2021/12/22 10:21:23;;;;;;;35.83;14.88;;;-2.00;99.90;;;;;;5113279;28;20040;-73
2021/12/22 10:23:54;;;;;;;36.80;14.45;;;-1.90;99.90;;;;;;5129603;27;20043;-74
2021/12/22 10:26:28;;;;;;;42.40;14.38;;;-1.80;99.90;;;;;;5112447;28;20047;-73
2021/12/22 10:29:06;;;;;;;38.65;14.60;;;-1.80;99.90;;;;;;5113935;28;20396;-74
2021/12/22 10:31:41;;;;;;;40.58;15.57;;;-1.70;99.90;;;;;;5129666;27;20090;-73
2021/12/22 10:34:10;;;;;;;33.63;12.70;;;-1.60;99.90;;;;;;5113405;28;20079;-74
2021/12/22 10:36:43;;;;;;;38.13;13.73;;;-1.50;99.90;;;;;;5130340;27;20054;-74
2021/12/22 10:39:25;;;;;;;33.80;13.57;;;-1.50;99.90;;;;;;5113716;28;20051;-74
2021/12/22 10:41:51;;;;;;;35.65;14.23;;;-1.50;99.90;;;;;;5078812;28;20047;-74
2021/12/22 10:44:18;;;;;;;37.38;14.70;;;-1.40;99.90;;;;;;5095061;28;20081;-74
2021/12/22 10:46:46;;;;;;;37.20;12.85;;;-1.40;99.90;;;;;;5128774;27;20093;-73
2021/12/22 10:49:19;;;;;;;38.30;14.02;;;-1.30;99.90;;;;;;5077734;28;20047;-72
2021/12/22 10:52:02;;;;;;;35.83;12.93;;;-1.30;99.90;;;;;;5128786;27;20058;-73
2021/12/22 10:54:33;;;;;;;40.33;15.40;;;-1.20;99.90;;;;;;5112889;28;20047;-73
2021/12/22 10:57:00;;;;;;;45.70;15.60;;;-1.20;99.90;;;;;;5113133;28;20357;-75
2021/12/22 10:59:26;;;;;;;44.50;15.93;;;-1.20;99.90;;;;;;5114809;28;20051;-73
2021/12/22 11:02:05;;;;;;;39.97;13.98;;;-1.10;99.90;;;;;;5113022;28;20043;-75
2021/12/22 11:04:32;;;;;;;40.38;15.57;;;-1.10;99.90;;;;;;5129322;27;20047;-75
2021/12/22 11:07:20;;;;;;;38.55;14.45;;;-1.10;99.90;;;;;;5112610;28;20083;-74
2021/12/22 11:09:45;;;;;;;39.13;14.68;;;-1.00;99.90;;;;;;5129150;27;20058;-73
2021/12/22 11:12:13;;;;;;;42.60;14.82;;;-1.00;99.90;;;;;;5115037;28;20123;-73
2021/12/22 11:14:41;;;;;;;36.10;14.57;;;-0.90;99.90;;;;;;5113346;28;20084;-74
2021/12/22 11:17:14;;;;;;;36.85;13.98;;;-1.00;99.90;;;;;;5113208;28;20044;-74
2021/12/22 11:19:58;;;;;;;37.17;13.48;;;-1.00;99.90;;;;;;5116773;28;20056;-74
2021/12/22 11:23:08;;;;;;;40.17;14.00;;;-0.90;99.90;;;;;;5095460;28;20383;-73
2021/12/22 11:25:34;;;;;;;41.03;14.93;;;-0.90;99.90;;;;;;5113012;28;20426;-74
2021/12/22 11:28:00;;;;;;;41.97;16.05;;;-0.90;99.90;;;;;;5113859;28;20131;-74
2021/12/22 11:30:27;;;;;;;33.95;14.25;;;-0.90;99.90;;;;;;5098538;28;20047;-73
2021/12/22 11:32:55;;;;;;;39.30;14.60;;;-0.90;99.90;;;;;;5099780;28;20161;-74
2021/12/22 11:35:21;;;;;;;37.85;14.40;;;-0.90;99.90;;;;;;5120135;28;20101;-74
2021/12/22 11:37:47;;;;;;;39.45;13.82;;;-0.90;99.90;;;;;;5118147;28;20502;-74
2021/12/22 11:40:17;;;;;;;38.20;14.85;;;-0.90;99.90;;;;;;5117628;28;20043;-73
2021/12/22 11:42:43;;;;;;;36.03;13.82;;;-0.90;99.90;;;;;;5099073;28;20039;-72
2021/12/22 11:45:23;;;;;;;38.80;14.30;;;-0.80;99.90;;;;;;5116405;28;20108;-73
2021/12/22 11:47:52;;;;;;;42.28;15.20;;;-0.80;99.90;;;;;;5116504;28;20116;-73
2021/12/22 11:50:28;;;;;;;34.20;13.82;;;-0.80;99.90;;;;;;5116603;28;20051;-73
2021/12/22 11:53:02;;;;;;;39.17;14.93;;;-0.80;99.90;;;;;;5132174;27;20063;-74
2021/12/22 11:55:37;;;;;;;37.45;14.07;;;-0.80;99.90;;;;;;5116889;28;20134;-74
2021/12/22 11:58:33;;;;;;;39.53;14.90;;;-0.80;99.90;;;;;;5097946;28;20043;-73
2021/12/22 12:01:08;;;;;;;36.70;14.07;;;-0.70;99.90;;;;;;5116855;28;20051;-73
2021/12/22 12:03:40;;;;;;;34.55;14.15;;;-0.70;99.90;;;;;;5098516;28;20054;-72
2021/12/22 12:06:45;;;;;;;36.92;15.05;;;-0.70;99.90;;;;;;5132431;27;20069;-72
2021/12/22 12:09:11;;;;;;;37.13;13.82;;;-0.60;99.90;;;;;;5098401;28;20379;-73
2021/12/22 12:11:51;;;;;;;37.38;13.52;;;-0.60;99.90;;;;;;5132253;27;20048;-72
2021/12/22 12:14:34;;;;;;;35.53;14.60;;;-0.60;99.90;;;;;;5116907;28;20372;-72
2021/12/22 12:23:32;;;;;;;38.13;15.30;;;-0.50;99.90;;;;;;5083971;28;20043;-74
2021/12/22 12:26:02;;;;;;;39.08;15.35;;;-0.50;99.90;;;;;;5133026;27;20054;-73
2021/12/22 12:28:29;;;;;;;37.15;14.20;;;-0.40;99.90;;;;;;5115303;27;20050;-72
2021/12/22 12:30:57;;;;;;;40.40;13.52;;;-0.40;99.90;;;;;;5116169;28;20044;-72
2021/12/22 12:33:25;;;;;;;37.70;14.50;;;-0.40;99.90;;;;;;5098129;28;20424;-72
2021/12/22 12:35:53;;;;;;;36.05;15.13;;;-0.40;99.90;;;;;;5116315;28;20040;-75
2021/12/22 12:38:19;;;;;;;36.22;14.85;;;-0.50;99.90;;;;;;5132637;27;20055;-72
2021/12/22 12:43:47;;;;;;;39.22;13.40;;;-0.50;99.90;;;;;;5117262;28;20350;-74
2021/12/22 12:46:57;;;;;;;33.45;14.90;;;-0.50;99.90;;;;;;5116354;28;20552;-76
2021/12/22 12:49:26;;;;;;;35.85;14.63;;;-0.50;99.90;;;;;;5033254;28;20045;-74
2021/12/22 12:51:55;;;;;;;36.20;14.18;;;-0.50;99.90;;;;;;5100615;28;20139;-73
2021/12/22 12:54:24;;;;;;;35.35;14.45;;;-0.50;99.90;;;;;;5116944;28;20108;-72
2021/12/22 12:57:01;;;;;;;38.55;15.40;;;-0.60;99.90;;;;;;5116710;28;20418;-73
2021/12/22 12:59:39;;;;;;;41.72;14.55;;;-0.50;99.90;;;;;;5099133;28;20086;-72
2021/12/22 13:02:18;;;;;;;39.92;15.52;;;-0.60;99.90;;;;;;5080254;28;20048;-72
2021/12/22 13:04:43;;;;;;;40.55;16.10;;;-0.50;99.90;;;;;;5132194;27;20441;-74
2021/12/22 13:07:13;;;;;;;38.30;14.63;;;-0.50;99.90;;;;;;5116268;28;20052;-72
2021/12/22 13:10:00;;;;;;;39.05;15.18;;;-0.50;99.90;;;;;;5099134;28;20071;-72
2021/12/22 13:18:04;;;;;;;39.38;14.82;;;-0.50;99.90;;;;;;5119778;28;20043;-74